createdAt,value
2019-02-17T15:04:08.737Z,23.50
2019-02-17T15:06:40.827Z,26.60
2019-02-17T15:09:14.304Z,23.40
2019-02-17T15:11:48.332Z,25.40
2019-02-17T15:14:21.377Z,24.47
2019-02-17T15:16:54.439Z,23.60
2019-02-17T15:19:28.015Z,25.47
2019-02-17T15:22:01.491Z,23.13
2019-02-17T15:24:34.481Z,27.65
2019-02-17T15:27:07.224Z,28.03
2019-02-17T15:29:40.546Z,25.45
2019-02-17T15:32:14.166Z,26.43
2019-02-17T15:34:48.203Z,22.93
2019-02-17T15:37:21.601Z,22.58
2019-02-17T15:39:55.377Z,21.47
2019-02-17T15:42:29.003Z,25.47
2019-02-17T15:45:03.346Z,24.20
2019-02-17T15:47:36.668Z,25.68
2019-02-17T15:50:09.722Z,25.08
2019-02-17T15:52:43.229Z,27.67
2019-02-17T15:55:16.736Z,25.32
2019-02-17T15:57:50.667Z,25.72
2019-02-17T16:00:23.751Z,24.50
2019-02-17T16:02:57.118Z,29.60
2019-02-17T16:05:30.604Z,23.77
2019-02-17T16:08:04.853Z,27.05
2019-02-17T16:10:38.741Z,24.50
2019-02-17T16:13:12.134Z,24.72
2019-02-17T16:15:46.144Z,26.90
2019-02-17T16:18:19.555Z,29.67
2019-02-17T16:20:52.328Z,25.20
2019-02-17T16:23:25.500Z,28.17
2019-02-17T16:25:59.021Z,25.90
2019-02-17T16:28:32.447Z,25.85
2019-02-17T16:31:05.257Z,27.17
2019-02-17T16:33:38.198Z,29.05
2019-02-17T16:36:10.794Z,24.70
2019-02-17T16:38:44.164Z,24.75
2019-02-17T16:41:17.317Z,28.05
2019-02-17T16:43:50.623Z,23.85
2019-02-17T16:46:24.154Z,24.47
2019-02-17T16:48:57.239Z,29.75
2019-02-17T16:51:30.234Z,24.70
2019-02-17T16:54:03.222Z,25.00
2019-02-17T16:56:36.949Z,29.05
2019-02-17T16:59:10.533Z,27.07
2019-02-17T17:01:43.486Z,24.55
2019-02-17T17:04:16.534Z,25.30
2019-02-17T17:06:50.067Z,27.40
2019-02-17T17:09:23.227Z,27.17
2019-02-17T17:11:56.398Z,22.22
2019-02-17T17:14:30.091Z,26.17
2019-02-17T17:17:02.890Z,21.57
2019-02-17T17:19:37.480Z,26.42
2019-02-17T17:22:10.989Z,23.02
2019-02-17T17:24:44.545Z,24.43
2019-02-17T17:27:19.102Z,26.77
2019-02-17T17:29:52.608Z,23.87
2019-02-17T17:32:26.130Z,24.23
2019-02-17T17:34:59.476Z,27.85
2019-02-17T17:37:32.478Z,27.77
2019-02-17T17:40:08.550Z,25.20
2019-02-17T17:42:42.057Z,25.57
2019-02-17T17:45:15.970Z,24.63
2019-02-17T17:47:49.773Z,27.07
2019-02-17T17:50:22.452Z,23.80
2019-02-17T17:52:55.530Z,27.62
2019-02-17T17:55:30.150Z,30.70
2019-02-17T17:58:04.298Z,27.10
2019-02-17T18:00:38.189Z,23.18
2019-02-17T18:03:11.684Z,25.10
2019-02-17T18:05:44.816Z,21.75
2019-02-17T18:08:18.456Z,26.75
2019-02-17T18:10:52.054Z,23.52
2019-02-17T18:13:24.437Z,19.82
2019-02-17T18:15:58.428Z,19.32
2019-02-17T18:18:31.136Z,23.27
2019-02-17T18:21:04.431Z,21.62
2019-02-17T18:23:37.923Z,25.65
2019-02-17T18:26:11.470Z,22.02
2019-02-17T18:28:44.952Z,23.35
2019-02-17T18:31:18.146Z,25.92
2019-02-17T18:33:50.962Z,23.60
2019-02-17T18:36:24.122Z,19.30
2019-02-17T18:38:56.919Z,21.45
2019-02-17T18:41:30.089Z,23.12
2019-02-17T18:44:02.684Z,23.27
2019-02-17T18:46:36.325Z,24.40
2019-02-17T18:49:09.969Z,23.57
2019-02-17T18:51:43.488Z,20.35
2019-02-17T18:54:16.959Z,23.73
2019-02-17T18:56:50.098Z,22.62
2019-02-17T18:59:24.201Z,25.52
2019-02-17T19:01:58.333Z,20.25
2019-02-17T19:04:31.485Z,21.25
2019-02-17T19:07:04.702Z,17.20
2019-02-17T19:09:39.067Z,19.57
2019-02-17T19:12:11.464Z,21.30
2019-02-17T19:14:44.950Z,20.97
2019-02-17T19:17:18.366Z,20.35
2019-02-17T19:19:51.885Z,20.95
2019-02-17T19:22:25.351Z,18.82
2019-02-17T19:24:58.879Z,18.02
2019-02-17T19:27:31.621Z,19.17
2019-02-17T19:30:04.888Z,22.93
2019-02-17T19:32:37.928Z,20.25
2019-02-17T19:35:11.534Z,19.12
2019-02-17T19:37:46.520Z,23.50
2019-02-17T19:40:20.133Z,19.20
2019-02-17T19:42:53.386Z,21.30
2019-02-17T19:45:26.540Z,20.20
2019-02-17T19:48:00.341Z,20.15
2019-02-17T19:50:34.216Z,19.15
2019-02-17T19:53:08.690Z,22.40
2019-02-17T19:55:41.797Z,20.80
2019-02-17T19:58:14.484Z,19.80
2019-02-17T20:00:47.951Z,18.95
2019-02-17T20:03:29.226Z,22.55
2019-02-17T20:06:03.480Z,21.90
2019-02-17T20:08:36.659Z,21.37
2019-02-17T20:11:10.408Z,17.48
2019-02-17T20:13:44.178Z,22.05
2019-02-17T20:16:17.969Z,17.98
2019-02-17T20:18:51.175Z,18.50
2019-02-17T20:21:25.156Z,20.25
2019-02-17T20:23:58.522Z,18.30
2019-02-17T20:26:32.030Z,18.65
2019-02-17T20:29:05.150Z,17.45
2019-02-17T20:31:38.740Z,17.27
2019-02-17T20:34:14.573Z,19.17
2019-02-17T20:36:48.063Z,19.95
2019-02-17T20:39:21.279Z,21.35
2019-02-17T20:41:54.691Z,17.92
2019-02-17T20:44:27.877Z,15.83
2019-02-17T20:47:00.967Z,17.15
2019-02-17T20:49:34.501Z,16.67
2019-02-17T20:52:07.986Z,25.92
2019-02-17T20:54:41.496Z,22.37
2019-02-17T20:57:15.610Z,18.15
2019-02-17T20:59:48.354Z,17.52
2019-02-17T21:02:21.790Z,15.83
2019-02-17T21:04:55.321Z,17.65
2019-02-17T21:07:28.356Z,19.12
2019-02-17T21:10:01.568Z,19.23
2019-02-17T21:12:34.863Z,22.60
2019-02-17T21:15:09.294Z,17.10
2019-02-17T21:17:41.953Z,19.20
2019-02-17T21:20:16.142Z,19.45
2019-02-17T21:22:49.593Z,14.07
2019-02-17T21:25:23.042Z,15.90
2019-02-17T21:27:55.745Z,17.62
2019-02-17T21:30:29.119Z,20.25
2019-02-17T21:33:01.868Z,17.73
2019-02-17T21:35:35.215Z,18.25
2019-02-17T21:38:07.975Z,19.10
2019-02-17T21:40:41.092Z,19.60
2019-02-17T21:43:14.687Z,18.12
2019-02-17T21:45:48.247Z,15.18
2019-02-17T21:48:21.474Z,16.40
2019-02-17T21:50:55.332Z,16.90
2019-02-17T21:53:28.793Z,20.48
2019-02-17T21:56:02.067Z,16.15
2019-02-17T21:58:35.531Z,17.85
2019-02-17T22:01:08.558Z,18.65
2019-02-17T22:03:42.184Z,15.78
2019-02-17T22:06:15.316Z,18.25
2019-02-17T22:08:49.054Z,15.35
2019-02-17T22:11:21.746Z,16.55
2019-02-17T22:13:54.979Z,13.95
2019-02-17T22:16:28.533Z,16.52
2019-02-17T22:19:02.094Z,18.42
2019-02-17T22:21:34.298Z,14.98
2019-02-17T22:24:07.099Z,14.68
2019-02-17T22:26:40.565Z,12.63
2019-02-17T22:29:13.707Z,15.93
2019-02-17T22:31:46.656Z,14.28
2019-02-17T22:34:20.121Z,15.03
2019-02-17T22:36:54.051Z,14.43
2019-02-17T22:39:27.450Z,17.57
2019-02-17T22:42:00.451Z,14.47
2019-02-17T22:44:35.017Z,19.85
2019-02-17T22:47:08.489Z,17.10
2019-02-17T22:49:41.968Z,12.55
2019-02-17T22:52:14.818Z,13.53
2019-02-17T22:54:48.239Z,16.70
2019-02-17T22:57:21.341Z,12.65
2019-02-17T22:59:54.554Z,13.35
2019-02-17T23:02:28.571Z,20.12
2019-02-17T23:05:01.924Z,13.08
2019-02-17T23:07:35.143Z,12.82
2019-02-17T23:10:09.173Z,14.00
2019-02-17T23:12:42.333Z,11.80
2019-02-17T23:15:14.733Z,12.90
2019-02-17T23:17:47.866Z,15.30
2019-02-17T23:20:21.249Z,17.07
2019-02-17T23:22:54.203Z,12.33
2019-02-17T23:25:27.369Z,14.33
2019-02-17T23:28:00.130Z,16.77
2019-02-17T23:30:34.016Z,12.47
2019-02-17T23:33:07.352Z,14.23
2019-02-17T23:35:40.575Z,10.93
2019-02-17T23:38:14.355Z,12.30
2019-02-17T23:40:47.651Z,12.78
2019-02-17T23:43:21.122Z,14.75
2019-02-17T23:45:53.826Z,13.08
2019-02-17T23:48:26.707Z,14.33
2019-02-17T23:50:59.842Z,16.15
2019-02-17T23:53:33.098Z,14.20
2019-02-17T23:56:05.799Z,10.82
2019-02-17T23:58:38.844Z,11.95
